Here is the Quick Look data you requested

The Data originates at the National Weather Service, and is made available here by the UAlbany Department of Atmospheric and Environmental Sciences

Surface Observations

KBKW 190751Z AUTO 33005KT 10SM OVC021 M03/M07 A3041 RMK AO2 SLP333 T10331072=
KBLF 190752Z AUTO VRB04KT 10SM OVC017 M04/M08 A3040 RMK AO2 SLP320 T10391078=
KCKB 190753Z AUTO 02008KT 10SM OVC026 M03/M08 A3049 RMK AO2 SLP334 T10281083=
KEKN 190751Z AUTO 34005KT 8SM BKN020 OVC026 M03/M08 A3043 RMK AO2 SLP333
 T10331078 TSNO=
KHLG 190753Z AUTO 36003KT 10SM CLR M07/M10 A3051 RMK AO2 SLP353 T10721100=
KHTS 190751Z 03005KT 10SM OVC033 M01/M07 A3054 RMK AO2 SLP347 T10111067=
KMGW 190753Z AUTO 01004KT 10SM CLR M06/M10 A3051 RMK AO2 SLP349 T10611100=
KMRB 190753Z AUTO 32008KT 10SM CLR M02/M10 A3048 RMK AO2 SLP329 T10221100=
KPKB 190753Z AUTO 33003KT 10SM CLR M04/M09 A3056 RMK AO2 SLP358 T10441089 $=